KLRU/LRU METAR and TAF weather

Enter ICAO airport designator
Station Type Date Time Source
KLRU METAR 2021/03/04 21:35 UTC NOAA

KLRU 042135Z AUTO 25025G33KT 10SM CLR 20/M09 A3007 RMK AO2 T01961086


Station Type Date Time Source
KLRU Decoded METAR 2021/03/04 21:35 UTC NOAA

Las Cruces, Las Cruces International Airport, NM, United States (KLRU) 32-17-22N 106-55-19W
Mar 04, 2021 - 04:35 PM EST / 2021.03.04 2135 UTC
Wind: from the WSW (250 degrees) at 29 MPH (25 KT) gusting to 38 MPH (33 KT):0
Visibility: 10 mile(s):0
Sky conditions: clear
Temperature: 67.3 F (19.6 C)
Dew Point: 16.5 F (-8.6 C)
Relative Humidity: 14%
Pressure (altimeter): 30.07 in. Hg (1018 hPa)
ob: KLRU 042135Z AUTO 25025G33KT 10SM CLR 20/M09 A3007 RMK AO2 T01961086
cycle: 21

Station Type Date Time Source
KLRU TAF 2021/03/04 18:22 UTC NOAA

TAF KLRU 041720Z 0418/0518 27022G33KT P6SM SKC
FM050400 31012G20KT P6SM FEW250
FM051400 36011KT P6SM SKC

Example: see airport list